sensor_id;sensor_type;location;lat;lon;timestamp;temperature;humidity
52275;DHT22;38228;50.940;4.024;2023-07-29T00:01:52;18.90;99.90
52275;DHT22;38228;50.940;4.024;2023-07-29T00:04:19;18.70;99.90
52275;DHT22;38228;50.940;4.024;2023-07-29T00:06:45;18.70;99.90
52275;DHT22;38228;50.940;4.024;2023-07-29T00:09:11;18.60;99.90
52275;DHT22;38228;50.940;4.024;2023-07-29T00:11:38;18.50;99.90
52275;DHT22;38228;50.940;4.024;2023-07-29T00:14:03;18.50;99.90
52275;DHT22;38228;50.940;4.024;2023-07-29T00:16:29;18.60;99.90
52275;DHT22;38228;50.940;4.024;2023-07-29T00:18:55;18.60;99.90
52275;DHT22;38228;50.940;4.024;2023-07-29T00:21:20;18.60;99.90
52275;DHT22;38228;50.940;4.024;2023-07-29T00:23:46;18.50;99.90
52275;DHT22;38228;50.940;4.024;2023-07-29T00:26:12;18.50;99.90
52275;DHT22;38228;50.940;4.024;2023-07-29T00:28:37;18.50;99.90
52275;DHT22;38228;50.940;4.024;2023-07-29T00:31:03;18.50;99.90
52275;DHT22;38228;50.940;4.024;2023-07-29T00:33:29;18.50;99.90
52275;DHT22;38228;50.940;4.024;2023-07-29T00:35:54;18.50;99.90
52275;DHT22;38228;50.940;4.024;2023-07-29T00:38:20;18.50;99.90
52275;DHT22;38228;50.940;4.024;2023-07-29T00:40:46;18.60;99.90
52275;DHT22;38228;50.940;4.024;2023-07-29T00:43:12;18.60;99.90
52275;DHT22;38228;50.940;4.024;2023-07-29T00:45:38;18.60;99.90
52275;DHT22;38228;50.940;4.024;2023-07-29T00:48:04;18.50;99.90
52275;DHT22;38228;50.940;4.024;2023-07-29T00:50:32;18.60;99.90
52275;DHT22;38228;50.940;4.024;2023-07-29T00:52:58;18.50;99.90
52275;DHT22;38228;50.940;4.024;2023-07-29T00:55:24;18.60;99.90
52275;DHT22;38228;50.940;4.024;2023-07-29T00:57:51;18.60;99.90
52275;DHT22;38228;50.940;4.024;2023-07-29T01:00:20;18.60;99.90
52275;DHT22;38228;50.940;4.024;2023-07-29T01:02:46;18.60;99.90
52275;DHT22;38228;50.940;4.024;2023-07-29T01:05:14;18.60;99.90
52275;DHT22;38228;50.940;4.024;2023-07-29T01:13:13;18.60;99.90
52275;DHT22;38228;50.940;4.024;2023-07-29T01:16:00;18.50;99.90
52275;DHT22;38228;50.940;4.024;2023-07-29T01:18:30;18.50;99.90
52275;DHT22;38228;50.940;4.024;2023-07-29T01:21:08;18.50;99.90
52275;DHT22;38228;50.940;4.024;2023-07-29T01:23:35;18.50;99.90
52275;DHT22;38228;50.940;4.024;2023-07-29T01:26:02;18.50;99.90
52275;DHT22;38228;50.940;4.024;2023-07-29T01:28:28;18.50;99.90
52275;DHT22;38228;50.940;4.024;2023-07-29T01:31:07;18.50;99.90
52275;DHT22;38228;50.940;4.024;2023-07-29T01:33:59;18.50;99.90
52275;DHT22;38228;50.940;4.024;2023-07-29T01:36:29;18.60;99.90
52275;DHT22;38228;50.940;4.024;2023-07-29T01:38:56;18.50;99.90
52275;DHT22;38228;50.940;4.024;2023-07-29T01:41:24;18.60;99.90
52275;DHT22;38228;50.940;4.024;2023-07-29T01:43:50;18.60;99.90
52275;DHT22;38228;50.940;4.024;2023-07-29T01:46:17;18.60;99.90
52275;DHT22;38228;50.940;4.024;2023-07-29T01:48:43;18.50;99.90
52275;DHT22;38228;50.940;4.024;2023-07-29T01:51:11;18.60;99.90
52275;DHT22;38228;50.940;4.024;2023-07-29T01:53:37;18.50;99.90
52275;DHT22;38228;50.940;4.024;2023-07-29T01:56:03;18.60;99.90
52275;DHT22;38228;50.940;4.024;2023-07-29T01:58:28;18.60;99.90
52275;DHT22;38228;50.940;4.024;2023-07-29T02:00:54;18.50;99.90
52275;DHT22;38228;50.940;4.024;2023-07-29T02:03:20;18.40;99.90
52275;DHT22;38228;50.940;4.024;2023-07-29T02:05:45;18.40;99.90
52275;DHT22;38228;50.940;4.024;2023-07-29T02:08:11;18.50;99.90
52275;DHT22;38228;50.940;4.024;2023-07-29T02:10:37;18.50;99.90
52275;DHT22;38228;50.940;4.024;2023-07-29T02:13:03;18.40;99.90
52275;DHT22;38228;50.940;4.024;2023-07-29T02:15:29;18.50;99.90
52275;DHT22;38228;50.940;4.024;2023-07-29T02:17:54;18.50;99.90
52275;DHT22;38228;50.940;4.024;2023-07-29T02:20:20;18.40;99.90
52275;DHT22;38228;50.940;4.024;2023-07-29T02:22:46;18.50;99.90
52275;DHT22;38228;50.940;4.024;2023-07-29T02:25:14;18.40;99.90
52275;DHT22;38228;50.940;4.024;2023-07-29T02:27:39;18.40;99.90
52275;DHT22;38228;50.940;4.024;2023-07-29T02:30:06;18.30;99.90
52275;DHT22;38228;50.940;4.024;2023-07-29T02:32:31;18.30;99.90
52275;DHT22;38228;50.940;4.024;2023-07-29T02:34:57;18.30;99.90
52275;DHT22;38228;50.940;4.024;2023-07-29T02:37:23;18.30;99.90
52275;DHT22;38228;50.940;4.024;2023-07-29T02:39:48;18.20;99.90
52275;DHT22;38228;50.940;4.024;2023-07-29T02:42:14;18.30;99.90
52275;DHT22;38228;50.940;4.024;2023-07-29T02:44:40;18.20;99.90
52275;DHT22;38228;50.940;4.024;2023-07-29T02:47:06;18.30;99.90
52275;DHT22;38228;50.940;4.024;2023-07-29T02:49:31;18.30;99.90
52275;DHT22;38228;50.940;4.024;2023-07-29T02:51:57;18.20;99.90
52275;DHT22;38228;50.940;4.024;2023-07-29T02:54:23;18.10;99.90
52275;DHT22;38228;50.940;4.024;2023-07-29T02:56:50;18.00;99.90
52275;DHT22;38228;50.940;4.024;2023-07-29T02:59:16;18.00;99.90
52275;DHT22;38228;50.940;4.024;2023-07-29T03:01:42;17.90;99.90
52275;DHT22;38228;50.940;4.024;2023-07-29T03:04:08;18.00;99.90
52275;DHT22;38228;50.940;4.024;2023-07-29T03:06:33;18.00;99.90
52275;DHT22;38228;50.940;4.024;2023-07-29T03:08:59;18.10;99.90
52275;DHT22;38228;50.940;4.024;2023-07-29T03:11:25;18.20;99.90
52275;DHT22;38228;50.940;4.024;2023-07-29T03:13:50;18.20;99.90
52275;DHT22;38228;50.940;4.024;2023-07-29T03:16:17;18.10;99.90
52275;DHT22;38228;50.940;4.024;2023-07-29T03:18:43;18.10;99.90
52275;DHT22;38228;50.940;4.024;2023-07-29T03:21:10;18.10;99.90
52275;DHT22;38228;50.940;4.024;2023-07-29T03:23:36;18.10;99.90
52275;DHT22;38228;50.940;4.024;2023-07-29T03:26:03;18.10;99.90
52275;DHT22;38228;50.940;4.024;2023-07-29T03:28:36;18.10;99.90
52275;DHT22;38228;50.940;4.024;2023-07-29T03:31:02;18.00;99.90
52275;DHT22;38228;50.940;4.024;2023-07-29T03:33:28;18.10;99.90
52275;DHT22;38228;50.940;4.024;2023-07-29T03:35:54;18.00;99.90
52275;DHT22;38228;50.940;4.024;2023-07-29T03:38:20;18.00;99.90
52275;DHT22;38228;50.940;4.024;2023-07-29T03:40:45;18.00;99.90
52275;DHT22;38228;50.940;4.024;2023-07-29T03:43:11;17.80;99.90
52275;DHT22;38228;50.940;4.024;2023-07-29T03:45:37;17.80;99.90
52275;DHT22;38228;50.940;4.024;2023-07-29T03:48:04;17.90;99.90
52275;DHT22;38228;50.940;4.024;2023-07-29T03:50:30;17.90;99.90
52275;DHT22;38228;50.940;4.024;2023-07-29T03:52:57;17.90;99.90
52275;DHT22;38228;50.940;4.024;2023-07-29T03:55:22;18.00;99.90
52275;DHT22;38228;50.940;4.024;2023-07-29T03:57:48;17.90;99.90
52275;DHT22;38228;50.940;4.024;2023-07-29T04:00:14;17.90;99.90
52275;DHT22;38228;50.940;4.024;2023-07-29T04:02:41;17.80;99.90
52275;DHT22;38228;50.940;4.024;2023-07-29T04:05:07;17.80;99.90
52275;DHT22;38228;50.940;4.024;2023-07-29T04:07:35;17.90;99.90
52275;DHT22;38228;50.940;4.024;2023-07-29T04:10:02;17.90;99.90
52275;DHT22;38228;50.940;4.024;2023-07-29T04:12:28;18.00;99.90
52275;DHT22;38228;50.940;4.024;2023-07-29T04:14:53;18.10;99.90
52275;DHT22;38228;50.940;4.024;2023-07-29T04:17:19;18.00;99.90
52275;DHT22;38228;50.940;4.024;2023-07-29T04:19:45;17.90;99.90
52275;DHT22;38228;50.940;4.024;2023-07-29T04:22:10;18.00;99.90
52275;DHT22;38228;50.940;4.024;2023-07-29T04:24:36;18.00;99.90
52275;DHT22;38228;50.940;4.024;2023-07-29T04:27:02;18.00;99.90
52275;DHT22;38228;50.940;4.024;2023-07-29T04:29:28;18.10;99.90
52275;DHT22;38228;50.940;4.024;2023-07-29T04:31:54;18.00;99.90
52275;DHT22;38228;50.940;4.024;2023-07-29T04:34:20;18.00;99.90
52275;DHT22;38228;50.940;4.024;2023-07-29T04:36:46;18.00;99.90
52275;DHT22;38228;50.940;4.024;2023-07-29T04:39:12;18.00;99.90
52275;DHT22;38228;50.940;4.024;2023-07-29T04:41:38;18.10;99.90
52275;DHT22;38228;50.940;4.024;2023-07-29T04:44:04;18.10;99.90
52275;DHT22;38228;50.940;4.024;2023-07-29T04:46:30;18.20;99.90
52275;DHT22;38228;50.940;4.024;2023-07-29T04:48:55;18.20;99.90
52275;DHT22;38228;50.940;4.024;2023-07-29T04:51:21;18.10;99.90
52275;DHT22;38228;50.940;4.024;2023-07-29T04:53:47;18.10;99.90
52275;DHT22;38228;50.940;4.024;2023-07-29T04:56:13;18.10;99.90
52275;DHT22;38228;50.940;4.024;2023-07-29T04:58:39;18.10;99.90
52275;DHT22;38228;50.940;4.024;2023-07-29T05:01:06;18.10;99.90
52275;DHT22;38228;50.940;4.024;2023-07-29T05:03:31;18.10;99.90
52275;DHT22;38228;50.940;4.024;2023-07-29T05:05:58;18.10;99.90
52275;DHT22;38228;50.940;4.024;2023-07-29T05:08:26;18.20;99.90
52275;DHT22;38228;50.940;4.024;2023-07-29T05:10:52;18.20;99.90
52275;DHT22;38228;50.940;4.024;2023-07-29T05:13:18;18.20;99.90
52275;DHT22;38228;50.940;4.024;2023-07-29T05:15:44;18.20;99.90
52275;DHT22;38228;50.940;4.024;2023-07-29T05:18:11;18.10;99.90
52275;DHT22;38228;50.940;4.024;2023-07-29T05:20:37;18.20;99.90
52275;DHT22;38228;50.940;4.024;2023-07-29T05:23:02;18.20;99.90
52275;DHT22;38228;50.940;4.024;2023-07-29T05:25:29;18.10;99.90
52275;DHT22;38228;50.940;4.024;2023-07-29T05:27:54;18.30;99.90
52275;DHT22;38228;50.940;4.024;2023-07-29T05:30:20;18.50;99.90
52275;DHT22;38228;50.940;4.024;2023-07-29T05:32:46;18.60;99.90
52275;DHT22;38228;50.940;4.024;2023-07-29T05:35:11;18.60;99.90
52275;DHT22;38228;50.940;4.024;2023-07-29T05:37:40;18.70;99.90
52275;DHT22;38228;50.940;4.024;2023-07-29T05:40:07;18.70;99.90
52275;DHT22;38228;50.940;4.024;2023-07-29T05:42:34;18.80;99.90
52275;DHT22;38228;50.940;4.024;2023-07-29T05:45:00;18.80;99.90
52275;DHT22;38228;50.940;4.024;2023-07-29T05:47:26;18.90;99.90
52275;DHT22;38228;50.940;4.024;2023-07-29T05:49:52;19.10;99.90
52275;DHT22;38228;50.940;4.024;2023-07-29T05:52:18;19.20;99.90
52275;DHT22;38228;50.940;4.024;2023-07-29T05:54:44;19.30;99.90
52275;DHT22;38228;50.940;4.024;2023-07-29T05:57:11;19.30;99.90
52275;DHT22;38228;50.940;4.024;2023-07-29T05:59:37;19.50;99.90
52275;DHT22;38228;50.940;4.024;2023-07-29T06:02:03;19.50;99.90
52275;DHT22;38228;50.940;4.024;2023-07-29T06:04:29;19.80;99.90
52275;DHT22;38228;50.940;4.024;2023-07-29T06:06:54;19.90;99.90
52275;DHT22;38228;50.940;4.024;2023-07-29T06:09:21;20.00;99.90
52275;DHT22;38228;50.940;4.024;2023-07-29T06:11:47;19.90;99.90
52275;DHT22;38228;50.940;4.024;2023-07-29T06:14:13;19.90;99.90
52275;DHT22;38228;50.940;4.024;2023-07-29T06:16:39;19.80;99.90
52275;DHT22;38228;50.940;4.024;2023-07-29T06:19:05;19.90;99.90
52275;DHT22;38228;50.940;4.024;2023-07-29T06:21:30;19.90;99.90
52275;DHT22;38228;50.940;4.024;2023-07-29T06:23:56;19.90;99.90
52275;DHT22;38228;50.940;4.024;2023-07-29T06:26:22;20.00;99.90
52275;DHT22;38228;50.940;4.024;2023-07-29T06:28:48;20.00;99.90
52275;DHT22;38228;50.940;4.024;2023-07-29T06:31:13;20.00;99.90
52275;DHT22;38228;50.940;4.024;2023-07-29T06:33:40;19.80;99.90
52275;DHT22;38228;50.940;4.024;2023-07-29T06:36:05;19.80;99.90
52275;DHT22;38228;50.940;4.024;2023-07-29T06:38:31;19.80;99.90
52275;DHT22;38228;50.940;4.024;2023-07-29T06:40:57;19.80;99.90
52275;DHT22;38228;50.940;4.024;2023-07-29T06:43:23;19.80;99.90
52275;DHT22;38228;50.940;4.024;2023-07-29T06:45:49;19.60;99.90
52275;DHT22;38228;50.940;4.024;2023-07-29T06:48:14;19.70;99.90
52275;DHT22;38228;50.940;4.024;2023-07-29T06:50:40;19.80;99.90
52275;DHT22;38228;50.940;4.024;2023-07-29T06:53:06;19.80;99.90
52275;DHT22;38228;50.940;4.024;2023-07-29T06:55:32;19.70;99.90
52275;DHT22;38228;50.940;4.024;2023-07-29T06:57:57;19.70;99.90
52275;DHT22;38228;50.940;4.024;2023-07-29T07:00:23;19.50;99.90
52275;DHT22;38228;50.940;4.024;2023-07-29T07:02:49;19.60;99.90
52275;DHT22;38228;50.940;4.024;2023-07-29T07:05:15;19.60;99.90
52275;DHT22;38228;50.940;4.024;2023-07-29T07:07:40;19.80;99.90
52275;DHT22;38228;50.940;4.024;2023-07-29T07:10:06;19.80;99.90
52275;DHT22;38228;50.940;4.024;2023-07-29T07:12:32;19.80;99.90
52275;DHT22;38228;50.940;4.024;2023-07-29T07:14:58;19.80;99.90
52275;DHT22;38228;50.940;4.024;2023-07-29T07:17:23;19.90;99.90
52275;DHT22;38228;50.940;4.024;2023-07-29T07:19:49;19.90;99.90
52275;DHT22;38228;50.940;4.024;2023-07-29T07:22:16;19.90;99.90
52275;DHT22;38228;50.940;4.024;2023-07-29T07:24:42;20.10;99.90
52275;DHT22;38228;50.940;4.024;2023-07-29T07:27:07;20.30;99.90
52275;DHT22;38228;50.940;4.024;2023-07-29T07:29:33;20.40;99.90
52275;DHT22;38228;50.940;4.024;2023-07-29T07:31:59;20.40;99.90
52275;DHT22;38228;50.940;4.024;2023-07-29T07:34:25;20.50;99.90
52275;DHT22;38228;50.940;4.024;2023-07-29T07:36:51;20.70;99.90
52275;DHT22;38228;50.940;4.024;2023-07-29T07:39:16;20.70;99.90
52275;DHT22;38228;50.940;4.024;2023-07-29T07:41:42;20.70;99.90
52275;DHT22;38228;50.940;4.024;2023-07-29T07:44:08;20.70;99.90
52275;DHT22;38228;50.940;4.024;2023-07-29T07:46:34;20.90;99.90
52275;DHT22;38228;50.940;4.024;2023-07-29T07:49:00;20.90;99.90
52275;DHT22;38228;50.940;4.024;2023-07-29T07:51:26;21.10;99.90
52275;DHT22;38228;50.940;4.024;2023-07-29T07:53:51;21.30;99.90
52275;DHT22;38228;50.940;4.024;2023-07-29T07:56:17;21.40;99.90
52275;DHT22;38228;50.940;4.024;2023-07-29T07:58:42;21.60;99.90
52275;DHT22;38228;50.940;4.024;2023-07-29T08:01:09;21.90;99.90
52275;DHT22;38228;50.940;4.024;2023-07-29T08:03:35;21.90;99.90
52275;DHT22;38228;50.940;4.024;2023-07-29T08:06:02;21.90;99.90
52275;DHT22;38228;50.940;4.024;2023-07-29T08:08:28;21.90;99.90
52275;DHT22;38228;50.940;4.024;2023-07-29T08:10:54;22.20;99.90
52275;DHT22;38228;50.940;4.024;2023-07-29T08:13:22;22.10;99.90
52275;DHT22;38228;50.940;4.024;2023-07-29T08:15:49;22.20;99.90
52275;DHT22;38228;50.940;4.024;2023-07-29T08:18:15;22.20;99.90
52275;DHT22;38228;50.940;4.024;2023-07-29T08:20:41;22.20;99.90
52275;DHT22;38228;50.940;4.024;2023-07-29T08:23:07;22.10;99.90
52275;DHT22;38228;50.940;4.024;2023-07-29T08:25:33;22.10;99.90
52275;DHT22;38228;50.940;4.024;2023-07-29T08:27:58;22.20;99.90
52275;DHT22;38228;50.940;4.024;2023-07-29T08:30:24;22.50;99.90
52275;DHT22;38228;50.940;4.024;2023-07-29T08:32:50;22.80;99.90
52275;DHT22;38228;50.940;4.024;2023-07-29T08:35:15;23.10;99.90
52275;DHT22;38228;50.940;4.024;2023-07-29T08:37:41;23.40;99.90
52275;DHT22;38228;50.940;4.024;2023-07-29T08:40:07;23.70;99.90
52275;DHT22;38228;50.940;4.024;2023-07-29T08:42:33;23.90;99.90
52275;DHT22;38228;50.940;4.024;2023-07-29T08:45:07;24.10;99.90
52275;DHT22;38228;50.940;4.024;2023-07-29T08:47:36;24.10;99.90
52275;DHT22;38228;50.940;4.024;2023-07-29T08:50:03;23.80;99.90
52275;DHT22;38228;50.940;4.024;2023-07-29T08:52:29;23.80;99.90
52275;DHT22;38228;50.940;4.024;2023-07-29T08:54:57;23.50;99.90
52275;DHT22;38228;50.940;4.024;2023-07-29T08:57:23;23.30;99.90
52275;DHT22;38228;50.940;4.024;2023-07-29T08:59:50;23.40;99.90
52275;DHT22;38228;50.940;4.024;2023-07-29T09:02:15;23.50;99.90
52275;DHT22;38228;50.940;4.024;2023-07-29T09:04:42;23.20;99.90
52275;DHT22;38228;50.940;4.024;2023-07-29T09:07:08;23.00;99.90
52275;DHT22;38228;50.940;4.024;2023-07-29T09:09:34;23.20;99.90
52275;DHT22;38228;50.940;4.024;2023-07-29T09:12:00;23.10;99.90
52275;DHT22;38228;50.940;4.024;2023-07-29T09:14:26;22.80;99.90
52275;DHT22;38228;50.940;4.024;2023-07-29T09:16:53;22.60;99.90
52275;DHT22;38228;50.940;4.024;2023-07-29T09:19:19;22.50;99.90
52275;DHT22;38228;50.940;4.024;2023-07-29T09:21:46;22.50;99.90
52275;DHT22;38228;50.940;4.024;2023-07-29T09:24:16;22.40;99.90
52275;DHT22;38228;50.940;4.024;2023-07-29T09:26:49;22.40;99.90
52275;DHT22;38228;50.940;4.024;2023-07-29T09:29:15;22.50;99.90
52275;DHT22;38228;50.940;4.024;2023-07-29T09:31:40;22.60;99.90
52275;DHT22;38228;50.940;4.024;2023-07-29T09:34:06;22.50;99.90
52275;DHT22;38228;50.940;4.024;2023-07-29T09:36:33;22.90;99.90
52275;DHT22;38228;50.940;4.024;2023-07-29T09:38:59;23.30;99.90
52275;DHT22;38228;50.940;4.024;2023-07-29T09:41:26;23.60;99.90
52275;DHT22;38228;50.940;4.024;2023-07-29T09:43:56;23.70;99.90
52275;DHT22;38228;50.940;4.024;2023-07-29T09:46:24;24.00;99.90
52275;DHT22;38228;50.940;4.024;2023-07-29T09:48:53;24.10;99.90
52275;DHT22;38228;50.940;4.024;2023-07-29T09:51:23;24.00;99.90
52275;DHT22;38228;50.940;4.024;2023-07-29T09:53:50;24.00;99.90
52275;DHT22;38228;50.940;4.024;2023-07-29T09:56:17;24.20;99.90
52275;DHT22;38228;50.940;4.024;2023-07-29T09:58:44;24.30;99.90
52275;DHT22;38228;50.940;4.024;2023-07-29T10:01:11;24.30;99.90
52275;DHT22;38228;50.940;4.024;2023-07-29T10:03:37;24.20;99.90
52275;DHT22;38228;50.940;4.024;2023-07-29T10:06:04;24.10;99.90
52275;DHT22;38228;50.940;4.024;2023-07-29T10:08:31;23.80;99.90
52275;DHT22;38228;50.940;4.024;2023-07-29T10:11:05;24.10;99.90
52275;DHT22;38228;50.940;4.024;2023-07-29T10:13:33;24.20;99.90
52275;DHT22;38228;50.940;4.024;2023-07-29T10:15:59;24.30;99.90
52275;DHT22;38228;50.940;4.024;2023-07-29T10:18:30;24.30;99.90
52275;DHT22;38228;50.940;4.024;2023-07-29T10:20:58;23.90;99.90
52275;DHT22;38228;50.940;4.024;2023-07-29T10:23:30;23.70;99.90
52275;DHT22;38228;50.940;4.024;2023-07-29T10:26:03;23.50;99.90
52275;DHT22;38228;50.940;4.024;2023-07-29T10:28:30;23.30;99.90
52275;DHT22;38228;50.940;4.024;2023-07-29T10:30:57;23.40;99.90
52275;DHT22;38228;50.940;4.024;2023-07-29T10:33:23;23.50;99.90
52275;DHT22;38228;50.940;4.024;2023-07-29T10:35:50;23.50;99.90
52275;DHT22;38228;50.940;4.024;2023-07-29T10:38:16;23.50;99.90
52275;DHT22;38228;50.940;4.024;2023-07-29T10:40:54;23.10;99.90
52275;DHT22;38228;50.940;4.024;2023-07-29T10:43:35;23.00;99.90
52275;DHT22;38228;50.940;4.024;2023-07-29T10:48:44;24.20;99.90
52275;DHT22;38228;50.940;4.024;2023-07-29T10:51:26;24.30;99.90
52275;DHT22;38228;50.940;4.024;2023-07-29T10:54:02;24.50;99.90
52275;DHT22;38228;50.940;4.024;2023-07-29T10:56:31;24.70;99.90
52275;DHT22;38228;50.940;4.024;2023-07-29T10:58:59;24.20;99.90
52275;DHT22;38228;50.940;4.024;2023-07-29T11:01:31;23.60;99.90
52275;DHT22;38228;50.940;4.024;2023-07-29T11:12:46;23.00;99.90
52275;DHT22;38228;50.940;4.024;2023-07-29T11:15:21;22.90;99.90
52275;DHT22;38228;50.940;4.024;2023-07-29T11:20:21;22.80;99.90
52275;DHT22;38228;50.940;4.024;2023-07-29T11:22:48;23.00;99.90
52275;DHT22;38228;50.940;4.024;2023-07-29T11:25:15;23.20;99.90
52275;DHT22;38228;50.940;4.024;2023-07-29T11:27:41;23.30;99.90
52275;DHT22;38228;50.940;4.024;2023-07-29T11:30:09;23.40;99.90
52275;DHT22;38228;50.940;4.024;2023-07-29T11:32:36;23.40;99.90
52275;DHT22;38228;50.940;4.024;2023-07-29T11:35:09;23.10;99.90
52275;DHT22;38228;50.940;4.024;2023-07-29T11:37:37;22.90;99.90
52275;DHT22;38228;50.940;4.024;2023-07-29T11:40:04;22.80;99.90
52275;DHT22;38228;50.940;4.024;2023-07-29T11:42:34;22.60;99.90
52275;DHT22;38228;50.940;4.024;2023-07-29T11:45:01;22.40;99.90
52275;DHT22;38228;50.940;4.024;2023-07-29T11:47:27;22.20;99.90
52275;DHT22;38228;50.940;4.024;2023-07-29T11:49:53;21.90;99.90
52275;DHT22;38228;50.940;4.024;2023-07-29T11:52:19;21.60;99.90
52275;DHT22;38228;50.940;4.024;2023-07-29T11:54:47;21.60;99.90
52275;DHT22;38228;50.940;4.024;2023-07-29T11:57:13;21.70;99.90
52275;DHT22;38228;50.940;4.024;2023-07-29T11:59:40;22.00;99.90
52275;DHT22;38228;50.940;4.024;2023-07-29T12:02:12;22.10;99.90
52275;DHT22;38228;50.940;4.024;2023-07-29T12:04:40;22.10;99.90
52275;DHT22;38228;50.940;4.024;2023-07-29T12:07:07;22.30;99.90
52275;DHT22;38228;50.940;4.024;2023-07-29T12:09:33;22.30;99.90
52275;DHT22;38228;50.940;4.024;2023-07-29T12:12:01;22.40;99.90
52275;DHT22;38228;50.940;4.024;2023-07-29T12:14:31;22.50;99.90
52275;DHT22;38228;50.940;4.024;2023-07-29T12:17:00;22.80;99.90
52275;DHT22;38228;50.940;4.024;2023-07-29T12:19:31;23.00;99.90
52275;DHT22;38228;50.940;4.024;2023-07-29T12:21:57;23.20;99.90
52275;DHT22;38228;50.940;4.024;2023-07-29T12:24:23;23.40;99.90
52275;DHT22;38228;50.940;4.024;2023-07-29T12:26:49;23.70;99.90
52275;DHT22;38228;50.940;4.024;2023-07-29T12:29:17;23.80;99.90
52275;DHT22;38228;50.940;4.024;2023-07-29T12:31:45;24.00;99.90
52275;DHT22;38228;50.940;4.024;2023-07-29T12:34:20;24.20;99.90
52275;DHT22;38228;50.940;4.024;2023-07-29T12:36:48;24.50;99.90
52275;DHT22;38228;50.940;4.024;2023-07-29T12:41:49;25.10;99.90
52275;DHT22;38228;50.940;4.024;2023-07-29T12:44:15;25.20;99.90
52275;DHT22;38228;50.940;4.024;2023-07-29T12:46:40;25.50;99.90
52275;DHT22;38228;50.940;4.024;2023-07-29T12:49:06;25.60;99.90
52275;DHT22;38228;50.940;4.024;2023-07-29T12:51:32;25.50;99.90
52275;DHT22;38228;50.940;4.024;2023-07-29T12:53:58;25.20;99.90
52275;DHT22;38228;50.940;4.024;2023-07-29T12:56:24;25.10;99.90
52275;DHT22;38228;50.940;4.024;2023-07-29T12:58:50;25.10;99.90
52275;DHT22;38228;50.940;4.024;2023-07-29T13:01:16;25.30;99.90
52275;DHT22;38228;50.940;4.024;2023-07-29T13:03:44;25.00;99.90
52275;DHT22;38228;50.940;4.024;2023-07-29T13:06:10;25.10;99.90
52275;DHT22;38228;50.940;4.024;2023-07-29T13:08:36;25.40;99.90
52275;DHT22;38228;50.940;4.024;2023-07-29T13:11:03;25.30;99.90
52275;DHT22;38228;50.940;4.024;2023-07-29T13:13:29;25.30;99.90
52275;DHT22;38228;50.940;4.024;2023-07-29T13:15:55;25.30;99.90
52275;DHT22;38228;50.940;4.024;2023-07-29T13:18:21;25.30;99.90
52275;DHT22;38228;50.940;4.024;2023-07-29T13:20:47;25.50;99.90
52275;DHT22;38228;50.940;4.024;2023-07-29T13:23:13;25.60;99.90
52275;DHT22;38228;50.940;4.024;2023-07-29T13:25:38;25.90;99.90
52275;DHT22;38228;50.940;4.024;2023-07-29T13:28:04;26.10;99.90
52275;DHT22;38228;50.940;4.024;2023-07-29T13:30:31;26.20;99.90
52275;DHT22;38228;50.940;4.024;2023-07-29T13:32:56;26.20;99.90
52275;DHT22;38228;50.940;4.024;2023-07-29T13:35:22;26.40;99.90
52275;DHT22;38228;50.940;4.024;2023-07-29T13:37:48;26.80;99.90
52275;DHT22;38228;50.940;4.024;2023-07-29T13:40:14;27.00;99.90
52275;DHT22;38228;50.940;4.024;2023-07-29T13:42:39;27.20;99.90
52275;DHT22;38228;50.940;4.024;2023-07-29T13:45:05;27.30;99.90
52275;DHT22;38228;50.940;4.024;2023-07-29T13:47:31;27.40;99.90
52275;DHT22;38228;50.940;4.024;2023-07-29T13:49:57;27.30;99.90
52275;DHT22;38228;50.940;4.024;2023-07-29T13:52:23;27.00;99.90
52275;DHT22;38228;50.940;4.024;2023-07-29T13:54:48;26.70;99.90
52275;DHT22;38228;50.940;4.024;2023-07-29T13:57:14;27.00;99.90
52275;DHT22;38228;50.940;4.024;2023-07-29T13:59:40;26.90;99.90
52275;DHT22;38228;50.940;4.024;2023-07-29T14:02:06;26.90;99.90
52275;DHT22;38228;50.940;4.024;2023-07-29T14:04:34;26.50;99.90
52275;DHT22;38228;50.940;4.024;2023-07-29T14:07:00;26.50;99.90
52275;DHT22;38228;50.940;4.024;2023-07-29T14:09:26;26.30;99.90
52275;DHT22;38228;50.940;4.024;2023-07-29T14:11:54;26.00;99.90
52275;DHT22;38228;50.940;4.024;2023-07-29T14:14:20;25.80;99.90
52275;DHT22;38228;50.940;4.024;2023-07-29T14:16:46;25.40;99.90
52275;DHT22;38228;50.940;4.024;2023-07-29T14:19:12;25.20;99.90
52275;DHT22;38228;50.940;4.024;2023-07-29T14:21:38;24.70;99.90
52275;DHT22;38228;50.940;4.024;2023-07-29T14:24:05;24.70;99.90
52275;DHT22;38228;50.940;4.024;2023-07-29T14:26:31;25.50;99.90
52275;DHT22;38228;50.940;4.024;2023-07-29T14:28:57;26.20;99.90
52275;DHT22;38228;50.940;4.024;2023-07-29T14:31:22;26.30;99.90
52275;DHT22;38228;50.940;4.024;2023-07-29T14:33:48;26.00;99.90
52275;DHT22;38228;50.940;4.024;2023-07-29T14:36:15;25.80;99.90
52275;DHT22;38228;50.940;4.024;2023-07-29T14:38:41;25.40;99.90
52275;DHT22;38228;50.940;4.024;2023-07-29T14:41:07;24.90;99.90
52275;DHT22;38228;50.940;4.024;2023-07-29T14:43:34;24.60;99.90
52275;DHT22;38228;50.940;4.024;2023-07-29T14:45:59;24.30;99.90
52275;DHT22;38228;50.940;4.024;2023-07-29T14:48:25;24.40;99.90
52275;DHT22;38228;50.940;4.024;2023-07-29T14:50:51;24.30;99.90
52275;DHT22;38228;50.940;4.024;2023-07-29T14:53:17;24.40;99.90
52275;DHT22;38228;50.940;4.024;2023-07-29T14:55:42;24.70;99.90
52275;DHT22;38228;50.940;4.024;2023-07-29T14:58:08;24.70;99.90
52275;DHT22;38228;50.940;4.024;2023-07-29T15:00:34;24.60;99.90
52275;DHT22;38228;50.940;4.024;2023-07-29T15:03:00;24.90;99.90
52275;DHT22;38228;50.940;4.024;2023-07-29T15:05:25;25.70;99.90
52275;DHT22;38228;50.940;4.024;2023-07-29T15:07:51;25.90;99.90
52275;DHT22;38228;50.940;4.024;2023-07-29T15:10:17;26.00;99.90
52275;DHT22;38228;50.940;4.024;2023-07-29T15:12:45;26.40;99.90
52275;DHT22;38228;50.940;4.024;2023-07-29T15:15:11;26.60;99.90
52275;DHT22;38228;50.940;4.024;2023-07-29T15:17:37;26.10;99.90
52275;DHT22;38228;50.940;4.024;2023-07-29T15:20:03;26.10;99.90
52275;DHT22;38228;50.940;4.024;2023-07-29T15:22:30;26.00;99.90
52275;DHT22;38228;50.940;4.024;2023-07-29T15:25:00;25.40;99.90
52275;DHT22;38228;50.940;4.024;2023-07-29T15:27:29;25.40;99.90
52275;DHT22;38228;50.940;4.024;2023-07-29T15:29:55;24.90;99.90
52275;DHT22;38228;50.940;4.024;2023-07-29T15:32:21;24.90;99.90
52275;DHT22;38228;50.940;4.024;2023-07-29T15:34:48;25.20;99.90
52275;DHT22;38228;50.940;4.024;2023-07-29T15:37:14;26.10;99.90
52275;DHT22;38228;50.940;4.024;2023-07-29T15:39:40;26.60;99.90
52275;DHT22;38228;50.940;4.024;2023-07-29T15:42:06;26.60;99.90
52275;DHT22;38228;50.940;4.024;2023-07-29T15:44:32;26.40;99.90
52275;DHT22;38228;50.940;4.024;2023-07-29T15:46:58;26.20;99.90
52275;DHT22;38228;50.940;4.024;2023-07-29T15:49:24;26.20;99.90